Time;durP1;ratioP1;P1;durP2;ratioP2;P2;SDS_P1;SDS_P2;PMS_P1;PMS_P2;Temp;Humidity;BMP_temperature;BMP_pressure;BME280_temperature;BME280_humidity;BME280_pressure;Samples;Min_cycle;Max_cycle;Signal;HPM_P1;HPM_P2
2021/04/29 00:00:56;;;;;;;12.65;10.88;;;11.40;99.90;;;;;;6104618;23;20519;-80
2021/04/29 00:03:22;;;;;;;12.15;10.80;;;11.40;99.90;;;;;;6099529;23;20181;-79
2021/04/29 00:12:34;;;;;;;13.38;10.80;;;11.40;99.90;;;;;;6120575;23;20170;-79
2021/04/29 00:15:01;;;;;;;11.55;10.23;;;11.30;99.90;;;;;;6099646;23;20208;-78
2021/04/29 00:17:29;;;;;;;14.02;10.80;;;11.30;99.90;;;;;;6100192;23;20185;-80
2021/04/29 00:19:57;;;;;;;12.18;10.18;;;11.30;99.90;;;;;;6100100;23;20706;-79
2021/04/29 00:22:24;;;;;;;10.68;9.57;;;11.40;99.90;;;;;;6100011;23;20177;-80
2021/04/29 00:24:50;;;;;;;15.20;10.57;;;11.40;99.90;;;;;;6099393;23;20201;-80
2021/04/29 00:27:17;;;;;;;10.95;9.68;;;11.40;99.90;;;;;;6099524;23;20232;-80
2021/04/29 00:29:44;;;;;;;11.13;10.02;;;11.50;99.90;;;;;;6100295;23;20177;-80
2021/04/29 00:32:11;;;;;;;10.10;9.15;;;11.50;99.90;;;;;;6100006;23;20523;-80
2021/04/29 00:41:29;;;;;;;10.63;9.40;;;11.50;99.90;;;;;;6097311;23;20670;-79
2021/04/29 00:43:55;;;;;;;11.65;9.00;;;11.50;99.90;;;;;;6097343;23;20215;-76
2021/04/29 00:46:23;;;;;;;11.25;9.85;;;11.50;99.90;;;;;;6115416;23;20193;-75
2021/04/29 00:48:49;;;;;;;14.90;9.93;;;11.60;99.90;;;;;;6109361;23;20185;-75
2021/04/29 00:51:17;;;;;;;12.07;10.65;;;11.60;99.90;;;;;;6103967;23;20185;-75
2021/04/29 00:53:45;;;;;;;13.70;9.35;;;11.50;99.90;;;;;;6114915;23;20236;-76
2021/04/29 00:56:12;;;;;;;10.30;9.18;;;11.50;99.90;;;;;;6120256;23;20215;-76
2021/04/29 00:58:39;;;;;;;10.45;9.05;;;11.50;99.90;;;;;;6119930;23;20189;-76
2021/04/29 01:01:06;;;;;;;11.05;9.48;;;11.50;99.90;;;;;;6119547;23;20188;-75
2021/04/29 01:03:39;;;;;;;9.73;8.73;;;11.50;99.90;;;;;;6117478;23;20173;-76
2021/04/29 01:06:10;;;;;;;11.90;10.60;;;11.50;99.90;;;;;;6113577;23;20205;-76
2021/04/29 01:08:44;;;;;;;12.57;10.45;;;11.50;99.90;;;;;;6097591;23;20616;-77
2021/04/29 01:11:13;;;;;;;11.75;10.45;;;11.40;99.90;;;;;;6097917;23;20205;-75
2021/04/29 01:13:44;;;;;;;10.13;8.80;;;11.40;99.90;;;;;;6099052;23;20181;-76
2021/04/29 01:16:12;;;;;;;13.02;9.57;;;11.40;99.90;;;;;;6098726;23;20479;-75
2021/04/29 01:18:40;;;;;;;11.20;10.10;;;11.40;99.90;;;;;;6116040;23;20185;-76
2021/04/29 01:21:13;;;;;;;10.32;9.25;;;11.40;99.90;;;;;;6123671;23;20172;-76
2021/04/29 01:23:50;;;;;;;11.57;10.38;;;11.30;99.90;;;;;;6123443;23;20205;-76
2021/04/29 01:26:22;;;;;;;11.80;10.07;;;11.30;99.90;;;;;;6123362;23;20173;-76
2021/04/29 01:28:51;;;;;;;13.88;10.90;;;11.20;99.90;;;;;;6124510;23;20165;-76
2021/04/29 01:31:20;;;;;;;11.55;10.35;;;11.20;99.90;;;;;;6124389;23;20169;-77
2021/04/29 01:33:47;;;;;;;14.13;11.80;;;11.20;99.90;;;;;;6124572;23;20161;-75
2021/04/29 01:36:13;;;;;;;15.38;12.75;;;11.20;99.90;;;;;;6119742;23;20374;-75
2021/04/29 01:38:40;;;;;;;16.52;12.00;;;11.20;99.90;;;;;;6107283;23;20281;-76
2021/04/29 01:41:07;;;;;;;16.25;13.30;;;11.20;99.90;;;;;;6106756;23;20184;-75
2021/04/29 01:43:34;;;;;;;16.33;13.38;;;11.10;99.90;;;;;;6109209;23;20196;-75
2021/04/29 01:46:03;;;;;;;16.90;13.02;;;11.10;99.90;;;;;;6106113;23;20223;-75
2021/04/29 01:48:30;;;;;;;15.65;13.43;;;11.10;99.90;;;;;;6106902;23;20280;-76
2021/04/29 01:50:57;;;;;;;13.52;12.13;;;11.10;99.90;;;;;;6105270;23;20196;-75
2021/04/29 01:53:24;;;;;;;14.40;12.52;;;11.10;99.90;;;;;;6106290;23;20204;-75
2021/04/29 01:55:51;;;;;;;14.77;12.60;;;11.10;99.90;;;;;;6105076;23;20224;-76
2021/04/29 01:58:17;;;;;;;15.20;13.25;;;11.10;99.90;;;;;;6104739;23;20181;-76
2021/04/29 02:00:43;;;;;;;14.10;12.65;;;11.00;99.90;;;;;;6104932;23;20193;-77
2021/04/29 02:03:11;;;;;;;12.63;11.30;;;11.00;99.90;;;;;;6104761;23;20287;-76
2021/04/29 02:05:37;;;;;;;13.70;11.07;;;11.00;99.90;;;;;;6105163;23;20239;-76
2021/04/29 02:08:04;;;;;;;9.25;8.27;;;11.00;99.90;;;;;;6101974;23;20201;-76
2021/04/29 02:10:32;;;;;;;11.15;9.90;;;11.00;99.90;;;;;;6101233;23;20181;-76
2021/04/29 02:13:00;;;;;;;10.90;9.05;;;10.90;99.90;;;;;;6100512;23;20224;-76
2021/04/29 02:15:30;;;;;;;10.80;8.35;;;10.90;99.90;;;;;;6100509;23;20205;-75
2021/04/29 02:18:02;;;;;;;10.63;9.63;;;10.90;99.90;;;;;;6104251;23;20225;-76
2021/04/29 02:20:31;;;;;;;12.02;9.52;;;11.00;99.90;;;;;;6107773;23;20632;-75
2021/04/29 02:22:58;;;;;;;10.82;8.95;;;11.00;99.90;;;;;;6100254;23;20553;-76
2021/04/29 02:25:27;;;;;;;9.98;8.57;;;11.00;99.90;;;;;;6098982;23;20216;-76
2021/04/29 02:27:54;;;;;;;9.50;8.50;;;11.00;99.90;;;;;;6097935;23;20320;-76
2021/04/29 02:30:21;;;;;;;8.50;7.68;;;10.90;99.90;;;;;;6098037;23;20663;-76
2021/04/29 02:32:48;;;;;;;10.25;8.20;;;10.90;99.90;;;;;;6098330;23;20185;-76
2021/04/29 02:35:16;;;;;;;8.93;8.02;;;10.90;99.90;;;;;;6098505;23;20312;-75
2021/04/29 02:37:45;;;;;;;9.57;8.07;;;10.90;99.90;;;;;;6097556;23;20706;-75
2021/04/29 02:40:13;;;;;;;10.27;9.20;;;11.00;99.90;;;;;;6098632;23;20242;-75
2021/04/29 02:42:41;;;;;;;10.27;9.13;;;11.00;99.90;;;;;;6098873;23;20185;-76
2021/04/29 02:45:09;;;;;;;13.10;11.27;;;11.00;99.90;;;;;;6098086;23;20213;-75
2021/04/29 02:47:36;;;;;;;13.98;12.00;;;11.00;99.90;;;;;;6096591;23;20201;-75
2021/04/29 02:50:04;;;;;;;16.58;11.77;;;11.00;99.90;;;;;;6098009;23;20185;-75
2021/04/29 02:52:31;;;;;;;15.27;12.50;;;11.00;99.90;;;;;;6096999;23;20205;-76
2021/04/29 02:54:59;;;;;;;14.15;12.20;;;11.10;99.90;;;;;;6097941;23;20381;-75
2021/04/29 02:57:25;;;;;;;13.88;11.25;;;11.10;99.90;;;;;;6097286;23;20182;-76
2021/04/29 02:59:51;;;;;;;13.15;11.80;;;11.00;99.90;;;;;;6097461;23;20185;-76
2021/04/29 03:02:18;;;;;;;12.48;11.07;;;11.00;99.90;;;;;;6097379;23;20260;-75
2021/04/29 03:04:44;;;;;;;12.90;10.50;;;11.00;99.90;;;;;;6097625;23;20276;-75
2021/04/29 03:07:11;;;;;;;13.32;10.52;;;10.90;99.90;;;;;;6097882;23;20283;-75
2021/04/29 03:09:37;;;;;;;14.90;11.25;;;10.90;99.90;;;;;;6100489;23;20184;-76
2021/04/29 03:12:06;;;;;;;12.48;11.15;;;10.90;99.90;;;;;;6097807;23;20212;-75
2021/04/29 03:14:32;;;;;;;13.70;11.23;;;11.00;99.90;;;;;;6097247;23;20209;-74
2021/04/29 03:16:59;;;;;;;11.75;10.65;;;11.00;99.90;;;;;;6110581;23;20204;-77
2021/04/29 03:19:25;;;;;;;13.35;11.93;;;11.00;99.90;;;;;;6119576;23;20185;-76
2021/04/29 03:21:51;;;;;;;14.57;11.68;;;11.00;99.90;;;;;;6102359;23;20185;-75
2021/04/29 03:24:18;;;;;;;12.32;11.02;;;10.90;99.90;;;;;;6101336;23;20240;-76
2021/04/29 03:26:45;;;;;;;14.10;11.60;;;10.90;99.90;;;;;;6114632;23;20212;-76
2021/04/29 03:29:13;;;;;;;15.15;12.13;;;10.80;99.90;;;;;;6115226;23;20196;-75
2021/04/29 03:31:40;;;;;;;14.55;11.90;;;10.80;99.90;;;;;;6101741;23;20197;-76
2021/04/29 03:34:06;;;;;;;18.90;12.93;;;10.80;99.90;;;;;;6097085;23;20201;-75
2021/04/29 03:36:34;;;;;;;15.13;11.50;;;10.80;99.90;;;;;;6096943;23;20268;-75
2021/04/29 03:39:00;;;;;;;12.32;10.88;;;10.80;99.90;;;;;;6097354;23;20185;-76
2021/04/29 03:41:26;;;;;;;15.73;11.93;;;10.80;99.90;;;;;;6096882;23;20186;-76
2021/04/29 03:43:53;;;;;;;15.82;12.45;;;10.80;99.90;;;;;;6097082;23;20188;-75
2021/04/29 03:46:20;;;;;;;13.07;11.45;;;10.80;99.90;;;;;;6096336;23;20628;-76
2021/04/29 03:48:46;;;;;;;13.45;12.05;;;10.80;99.90;;;;;;6096984;23;20354;-74
2021/04/29 03:51:13;;;;;;;14.02;11.52;;;10.80;99.90;;;;;;6097191;23;20272;-75
2021/04/29 03:53:39;;;;;;;17.30;11.18;;;10.80;99.90;;;;;;6097095;23;20237;-74
2021/04/29 03:56:05;;;;;;;12.38;11.05;;;10.80;99.90;;;;;;6096860;23;20699;-76
2021/04/29 03:58:32;;;;;;;12.95;11.50;;;10.70;99.90;;;;;;6097915;23;20256;-76
2021/04/29 04:00:58;;;;;;;13.90;10.98;;;10.70;99.90;;;;;;6098962;23;20244;-77
2021/04/29 04:03:26;;;;;;;14.10;11.18;;;10.70;99.90;;;;;;6099035;23;20217;-76
2021/04/29 04:05:52;;;;;;;12.85;11.55;;;10.60;99.90;;;;;;6098687;23;20201;-77
2021/04/29 04:08:18;;;;;;;16.17;10.70;;;10.50;99.90;;;;;;6097918;23;20288;-76
2021/04/29 04:10:45;;;;;;;13.10;10.77;;;10.50;99.90;;;;;;6097564;23;20256;-77
2021/04/29 04:13:17;;;;;;;16.23;11.55;;;10.50;99.90;;;;;;6098412;23;20615;-76
2021/04/29 04:15:44;;;;;;;13.20;11.80;;;10.50;99.90;;;;;;6097597;23;20201;-76
2021/04/29 04:18:10;;;;;;;16.30;12.75;;;10.50;99.90;;;;;;6096603;23;20201;-75
2021/04/29 04:20:37;;;;;;;15.93;11.63;;;10.50;99.90;;;;;;6098045;23;20240;-75
2021/04/29 04:23:04;;;;;;;14.00;12.07;;;10.60;99.90;;;;;;6098962;23;20185;-75
2021/04/29 04:25:31;;;;;;;13.13;11.25;;;10.60;99.90;;;;;;6108976;23;20315;-76
2021/04/29 04:27:57;;;;;;;15.68;12.10;;;10.60;99.90;;;;;;6098501;23;20213;-75
2021/04/29 04:30:24;;;;;;;14.35;12.50;;;10.70;99.90;;;;;;6097586;23;20185;-76
2021/04/29 04:32:50;;;;;;;15.38;12.75;;;10.70;99.90;;;;;;6097170;23;20209;-77
2021/04/29 04:35:17;;;;;;;17.10;13.52;;;10.80;99.90;;;;;;6098201;23;20205;-77
2021/04/29 04:37:45;;;;;;;15.48;12.75;;;10.90;99.90;;;;;;6096599;23;20189;-76
2021/04/29 04:40:12;;;;;;;14.98;12.57;;;10.90;99.90;;;;;;6097724;23;20217;-78
2021/04/29 04:42:39;;;;;;;17.85;13.65;;;11.00;99.90;;;;;;6097223;23;20208;-76
2021/04/29 04:45:07;;;;;;;15.02;13.35;;;11.20;99.90;;;;;;6096159;23;20295;-77
2021/04/29 04:47:33;;;;;;;13.05;11.63;;;11.50;99.90;;;;;;6096067;23;20252;-76
2021/04/29 04:49:59;;;;;;;12.15;10.95;;;11.90;99.90;;;;;;6098801;23;20208;-76
2021/04/29 04:52:26;;;;;;;11.02;9.75;;;12.20;99.90;;;;;;6099064;23;20192;-76
2021/04/29 04:54:54;;;;;;;11.70;10.43;;;12.30;99.40;;;;;;6098597;23;20212;-77
2021/04/29 04:57:20;;;;;;;11.27;10.05;;;12.50;96.20;;;;;;6097455;23;20177;-75
2021/04/29 04:59:47;;;;;;;12.40;9.85;;;12.70;93.40;;;;;;6097747;23;20269;-77
2021/04/29 05:02:14;;;;;;;10.60;9.50;;;12.80;92.40;;;;;;6098703;23;20477;-76
2021/04/29 05:04:40;;;;;;;10.90;9.90;;;12.80;89.80;;;;;;6098452;23;20209;-76
2021/04/29 05:07:07;;;;;;;9.95;8.65;;;12.60;89.30;;;;;;6099789;23;20260;-76
2021/04/29 05:09:34;;;;;;;10.13;9.13;;;12.40;90.40;;;;;;6100144;23;20186;-77
2021/04/29 05:12:01;;;;;;;10.57;9.48;;;12.20;91.30;;;;;;6102419;23;20205;-76
2021/04/29 05:14:29;;;;;;;11.23;10.07;;;12.10;92.20;;;;;;6103552;23;20205;-76
2021/04/29 05:16:55;;;;;;;15.02;10.07;;;12.00;92.50;;;;;;6099505;23;20188;-77
2021/04/29 05:19:22;;;;;;;10.43;9.25;;;12.00;93.10;;;;;;6099422;23;20276;-76
2021/04/29 05:21:48;;;;;;;14.05;10.23;;;12.00;93.60;;;;;;6101250;23;20185;-76
2021/04/29 05:24:15;;;;;;;10.25;9.23;;;12.10;93.90;;;;;;6100816;23;20243;-76
2021/04/29 05:26:41;;;;;;;10.68;9.00;;;12.20;92.80;;;;;;6098910;23;20714;-77
2021/04/29 05:29:08;;;;;;;11.77;9.07;;;12.30;92.70;;;;;;6100945;23;20465;-77
2021/04/29 05:31:35;;;;;;;8.60;7.70;;;12.50;92.30;;;;;;6102580;23;20249;-77
2021/04/29 05:34:03;;;;;;;8.52;6.95;;;13.00;90.20;;;;;;6100151;23;20232;-75
2021/04/29 05:36:29;;;;;;;7.47;6.75;;;13.60;83.00;;;;;;6098238;23;20181;-77
2021/04/29 05:38:56;;;;;;;7.03;6.43;;;13.80;77.60;;;;;;6098790;23;20540;-76
2021/04/29 05:41:22;;;;;;;6.65;6.05;;;13.90;73.50;;;;;;6098865;23;20186;-76
2021/04/29 05:43:49;;;;;;;6.13;5.53;;;14.30;70.00;;;;;;6098978;23;20188;-76
2021/04/29 05:46:16;;;;;;;5.38;4.88;;;14.50;67.30;;;;;;6097863;23;20468;-76
2021/04/29 05:48:42;;;;;;;5.70;5.13;;;14.70;65.80;;;;;;6097347;23;20285;-75
2021/04/29 05:51:09;;;;;;;5.17;4.67;;;14.90;63.60;;;;;;6098015;23;20432;-75
2021/04/29 05:53:35;;;;;;;7.33;5.10;;;15.10;63.10;;;;;;6098214;23;20912;-76
2021/04/29 05:56:01;;;;;;;4.67;4.27;;;15.30;59.40;;;;;;6099203;23;20827;-76
2021/04/29 05:58:28;;;;;;;4.87;4.47;;;15.30;58.40;;;;;;6099690;23;20409;-76
2021/04/29 06:00:54;;;;;;;6.67;5.00;;;15.30;58.40;;;;;;6099693;23;20388;-76
2021/04/29 06:03:22;;;;;;;5.07;4.50;;;15.30;57.80;;;;;;6100159;23;20438;-76
2021/04/29 06:05:49;;;;;;;4.90;4.13;;;15.50;57.50;;;;;;6099533;23;20437;-75
2021/04/29 06:08:15;;;;;;;4.90;4.40;;;15.60;55.60;;;;;;6099265;23;20568;-75
2021/04/29 06:10:42;;;;;;;4.20;3.87;;;15.50;56.40;;;;;;6100045;23;20775;-77
2021/04/29 06:13:09;;;;;;;4.40;4.00;;;15.60;56.10;;;;;;6100862;23;20439;-76
2021/04/29 06:15:36;;;;;;;4.17;3.77;;;15.60;55.60;;;;;;6101241;23;20764;-77
2021/04/29 06:18:02;;;;;;;4.43;3.93;;;15.60;55.40;;;;;;6101582;23;20401;-76
2021/04/29 06:20:30;;;;;;;5.53;4.10;;;15.80;55.60;;;;;;6103213;23;20829;-77
2021/04/29 06:22:56;;;;;;;9.73;4.60;;;15.70;55.70;;;;;;6103232;23;20911;-76
2021/04/29 06:25:23;;;;;;;4.77;4.30;;;16.00;54.80;;;;;;6100345;23;20437;-75
2021/04/29 06:27:50;;;;;;;4.53;4.13;;;15.60;54.50;;;;;;6100369;23;20459;-74
2021/04/29 06:30:17;;;;;;;6.60;4.93;;;15.20;56.40;;;;;;6101827;23;20456;-75
2021/04/29 06:32:44;;;;;;;5.30;4.23;;;14.80;59.10;;;;;;6101112;23;20403;-76
2021/04/29 06:35:11;;;;;;;3.90;3.60;;;14.50;60.90;;;;;;6098271;23;20433;-76
2021/04/29 06:37:38;;;;;;;4.80;4.22;;;14.40;60.50;;;;;;6099655;23;20256;-75
2021/04/29 06:40:06;;;;;;;6.78;3.60;;;14.40;62.60;;;;;;6100164;23;20185;-76
2021/04/29 06:42:33;;;;;;;4.70;4.30;;;14.30;61.10;;;;;;6100922;23;20256;-76
2021/04/29 06:44:59;;;;;;;4.57;3.95;;;14.10;61.10;;;;;;6100618;23;20241;-75
2021/04/29 06:47:31;;;;;;;5.93;4.40;;;14.00;62.30;;;;;;6098936;23;20205;-76
2021/04/29 06:49:57;;;;;;;5.13;4.68;;;13.80;62.70;;;;;;6101116;23;20277;-76
2021/04/29 06:52:24;;;;;;;5.75;5.15;;;13.70;64.70;;;;;;6101520;23;20208;-76
2021/04/29 06:54:51;;;;;;;4.68;4.28;;;13.40;66.20;;;;;;6100748;23;20594;-76
2021/04/29 06:57:18;;;;;;;5.75;5.25;;;13.20;67.70;;;;;;6100161;23;20161;-74
2021/04/29 06:59:45;;;;;;;6.78;4.72;;;13.20;69.10;;;;;;6099618;23;20209;-75
2021/04/29 07:02:11;;;;;;;5.45;4.63;;;13.20;69.40;;;;;;6100994;23;20280;-76
2021/04/29 07:04:38;;;;;;;8.05;4.68;;;13.20;70.20;;;;;;6104883;23;20205;-76
2021/04/29 07:07:05;;;;;;;10.65;5.65;;;13.50;70.10;;;;;;6106568;23;20201;-75
2021/04/29 07:09:31;;;;;;;9.27;4.70;;;13.60;67.60;;;;;;6098521;23;20244;-75
2021/04/29 07:11:58;;;;;;;9.25;5.60;;;13.80;67.00;;;;;;6098674;23;20216;-75
2021/04/29 07:14:25;;;;;;;6.97;4.72;;;13.90;66.00;;;;;;6101716;23;20243;-75
2021/04/29 07:16:51;;;;;;;5.22;4.53;;;14.00;65.10;;;;;;6099356;23;20620;-74
2021/04/29 07:19:18;;;;;;;7.90;4.50;;;14.20;64.90;;;;;;6097783;23;20185;-74
2021/04/29 07:21:44;;;;;;;6.97;4.20;;;14.70;62.90;;;;;;6099094;23;20391;-75
2021/04/29 07:24:11;;;;;;;5.15;4.25;;;15.00;59.50;;;;;;6100368;23;20467;-75
2021/04/29 07:26:37;;;;;;;6.87;4.40;;;15.00;59.10;;;;;;6098507;23;20192;-74
2021/04/29 07:29:05;;;;;;;5.57;4.00;;;15.30;57.30;;;;;;6100882;23;20427;-78
2021/04/29 07:31:32;;;;;;;6.80;5.07;;;15.60;55.40;;;;;;6102414;23;20417;-79
2021/04/29 07:33:58;;;;;;;6.77;5.03;;;15.50;55.90;;;;;;6103600;23;20403;-77
2021/04/29 07:36:25;;;;;;;5.77;4.20;;;15.60;55.60;;;;;;6102305;23;20480;-76
2021/04/29 07:38:51;;;;;;;6.00;5.13;;;15.70;54.60;;;;;;6102212;23;20433;-79
2021/04/29 07:41:22;;;;;;;6.70;4.73;;;15.70;54.60;;;;;;6101719;23;20492;-77
2021/04/29 07:43:48;;;;;;;5.20;4.80;;;15.70;54.60;;;;;;6102922;23;20605;-79
2021/04/29 07:46:16;;;;;;;4.83;4.43;;;15.70;54.60;;;;;;6105337;23;20360;-81
2021/04/29 07:48:42;;;;;;;6.10;5.40;;;15.70;54.60;;;;;;6103905;23;20423;-78
2021/04/29 07:51:09;;;;;;;6.77;5.63;;;15.50;55.40;;;;;;6104188;23;20714;-76
2021/04/29 07:53:35;;;;;;;5.80;5.30;;;15.30;55.50;;;;;;6104625;23;20480;-75
2021/04/29 07:56:02;;;;;;;10.03;5.33;;;15.10;55.10;;;;;;6106532;23;20457;-78
2021/04/29 07:58:31;;;;;;;6.10;5.50;;;15.10;57.00;;;;;;6107772;23;20468;-79
2021/04/29 08:00:57;;;;;;;8.23;6.00;;;15.00;56.10;;;;;;6116254;23;20401;-76
2021/04/29 08:03:24;;;;;;;6.07;5.47;;;15.10;57.60;;;;;;6114452;23;20395;-75
2021/04/29 08:05:51;;;;;;;11.57;5.77;;;15.30;55.50;;;;;;6112535;23;20474;-76
2021/04/29 08:08:18;;;;;;;9.47;8.47;;;15.20;56.30;;;;;;6116880;23;20426;-78
2021/04/29 08:10:45;;;;;;;6.57;5.33;;;15.20;56.80;;;;;;6116524;23;20413;-75
2021/04/29 08:13:11;;;;;;;7.17;6.13;;;15.30;56.90;;;;;;6117554;23;20451;-78
2021/04/29 08:15:38;;;;;;;7.20;5.77;;;15.40;55.50;;;;;;6116328;23;20437;-76
2021/04/29 08:18:05;;;;;;;9.70;5.60;;;15.60;55.00;;;;;;6112009;23;20425;-77
2021/04/29 08:20:32;;;;;;;8.00;6.13;;;15.70;54.60;;;;;;6110733;23;20413;-77
2021/04/29 08:22:59;;;;;;;9.23;6.27;;;15.80;54.60;;;;;;6116321;23;20500;-76
2021/04/29 08:25:25;;;;;;;11.37;5.13;;;15.90;53.20;;;;;;6117469;23;20433;-77
2021/04/29 08:27:52;;;;;;;8.57;6.77;;;16.30;55.00;;;;;;6119995;23;20416;-78
2021/04/29 08:30:23;;;;;;;8.07;5.53;;;17.00;50.90;;;;;;6114073;23;20409;-77
2021/04/29 08:32:49;;;;;;;7.00;6.30;;;17.40;49.70;;;;;;6117771;23;20380;-76
2021/04/29 08:35:16;;;;;;;6.63;6.03;;;17.50;46.50;;;;;;6116992;23;20396;-77
2021/04/29 08:37:43;;;;;;;9.80;6.20;;;17.20;46.20;;;;;;6113481;23;20376;-77
2021/04/29 08:40:10;;;;;;;7.70;7.00;;;17.50;46.50;;;;;;6100293;23;20419;-76
2021/04/29 08:42:41;;;;;;;8.60;6.20;;;17.40;45.70;;;;;;6099877;23;20489;-77
2021/04/29 08:45:09;;;;;;;7.47;6.77;;;16.90;46.70;;;;;;6101971;23;20468;-76
2021/04/29 08:47:36;;;;;;;7.47;6.70;;;16.80;45.80;;;;;;6104671;23;20475;-77
2021/04/29 08:50:04;;;;;;;10.90;7.10;;;16.60;45.70;;;;;;6106565;23;20420;-76
2021/04/29 08:52:30;;;;;;;8.13;6.20;;;16.90;45.90;;;;;;6110533;23;20481;-77
2021/04/29 08:54:58;;;;;;;7.43;6.67;;;16.80;45.80;;;;;;6113114;23;20436;-75
2021/04/29 08:57:25;;;;;;;7.13;6.43;;;16.90;45.90;;;;;;6103529;23;20991;-73
2021/04/29 08:59:52;;;;;;;7.87;5.80;;;17.00;44.30;;;;;;6097920;23;20446;-75
2021/04/29 09:02:31;;;;;;;9.73;6.13;;;17.20;44.50;;;;;;6097190;23;20492;-77
2021/04/29 09:05:09;;;;;;;12.43;7.30;;;17.60;44.30;;;;;;6097290;23;20442;-77
2021/04/29 09:07:36;;;;;;;8.13;6.83;;;17.70;43.70;;;;;;6097432;23;20433;-76
2021/04/29 09:10:04;;;;;;;13.23;7.07;;;17.60;43.20;;;;;;6097733;23;20413;-78
2021/04/29 09:12:34;;;;;;;9.40;7.43;;;17.30;43.90;;;;;;6101271;23;20421;-78
2021/04/29 09:15:01;;;;;;;7.83;7.03;;;16.70;45.00;;;;;;6101431;23;20411;-76
2021/04/29 09:17:27;;;;;;;13.47;7.20;;;16.50;45.60;;;;;;6101617;23;20384;-77
2021/04/29 09:19:54;;;;;;;8.67;7.73;;;16.30;46.40;;;;;;6101911;23;20760;-77
2021/04/29 09:22:22;;;;;;;8.23;7.43;;;16.10;47.50;;;;;;6104133;23;20416;-81
2021/04/29 09:24:49;;;;;;;7.80;7.10;;;15.90;51.00;;;;;;6102948;23;20408;-79
2021/04/29 09:27:18;;;;;;;8.40;7.30;;;15.60;51.40;;;;;;6107995;23;20420;-78
2021/04/29 09:29:53;;;;;;;13.05;7.93;;;15.00;53.40;;;;;;6104400;23;20413;-78
2021/04/29 09:32:24;;;;;;;8.93;7.72;;;13.70;57.20;;;;;;6100901;23;20200;-75
2021/04/29 09:34:50;;;;;;;10.27;8.25;;;12.80;63.30;;;;;;6102330;23;20229;-79
2021/04/29 09:37:30;;;;;;;14.73;9.93;;;12.00;67.10;;;;;;6103977;23;20181;-78
2021/04/29 09:39:56;;;;;;;14.40;10.07;;;11.40;77.50;;;;;;6101457;23;20188;-78
2021/04/29 09:42:32;;;;;;;12.18;10.75;;;11.10;80.00;;;;;;6103778;23;20582;-79
2021/04/29 09:45:03;;;;;;;14.65;11.88;;;10.90;80.40;;;;;;6103304;23;20212;-79
2021/04/29 09:47:30;;;;;;;17.92;14.27;;;10.80;85.10;;;;;;6103546;23;20276;-78
2021/04/29 09:49:57;;;;;;;17.40;14.60;;;10.80;90.10;;;;;;6106012;23;20236;-79
2021/04/29 09:52:25;;;;;;;18.63;15.23;;;10.70;90.80;;;;;;6108446;23;20208;-78
2021/04/29 09:54:53;;;;;;;19.85;16.20;;;10.60;91.50;;;;;;6120252;23;20206;-77
2021/04/29 09:57:24;;;;;;;26.98;21.33;;;10.60;92.60;;;;;;6119528;23;20181;-78
2021/04/29 09:59:56;;;;;;;17.10;14.65;;;10.70;93.50;;;;;;6119571;23;20249;-78
2021/04/29 10:02:22;;;;;;;19.52;14.85;;;10.80;94.30;;;;;;6118060;23;20185;-77
2021/04/29 10:04:51;;;;;;;18.75;15.38;;;10.80;94.60;;;;;;6117709;23;20206;-77
2021/04/29 10:07:18;;;;;;;21.00;15.05;;;11.00;95.20;;;;;;6106281;23;20268;-77
2021/04/29 10:09:46;;;;;;;19.58;15.50;;;10.90;93.80;;;;;;6099835;23;20193;-76
2021/04/29 10:12:14;;;;;;;22.15;16.52;;;10.90;94.60;;;;;;6101016;23;20196;-75
2021/04/29 10:14:45;;;;;;;17.10;15.35;;;11.00;94.60;;;;;;6099411;23;20204;-76
2021/04/29 10:17:17;;;;;;;19.45;15.23;;;11.10;95.30;;;;;;6100218;23;20255;-77
2021/04/29 10:19:45;;;;;;;16.35;13.70;;;11.40;94.80;;;;;;6101161;23;20209;-77
2021/04/29 10:22:12;;;;;;;14.77;12.93;;;11.60;93.20;;;;;;6100015;23;20212;-76
2021/04/29 10:24:41;;;;;;;12.63;11.30;;;11.90;92.00;;;;;;6100111;23;20284;-77
2021/04/29 10:27:09;;;;;;;13.70;11.32;;;12.30;90.40;;;;;;6100152;23;20186;-76
2021/04/29 10:29:36;;;;;;;13.05;11.65;;;12.40;82.00;;;;;;6099563;23;20185;-76
2021/04/29 10:32:07;;;;;;;13.60;10.77;;;12.50;78.60;;;;;;6099443;23;20177;-75
2021/04/29 10:34:43;;;;;;;16.23;11.30;;;12.60;78.00;;;;;;6102873;23;20216;-76
2021/04/29 10:37:19;;;;;;;13.55;12.13;;;12.70;77.60;;;;;;6105366;23;20166;-76
2021/04/29 10:39:56;;;;;;;12.63;11.07;;;12.80;74.50;;;;;;6104011;23;20191;-77
2021/04/29 10:42:24;;;;;;;10.73;9.70;;;12.90;73.60;;;;;;6102982;23;20169;-76
2021/04/29 10:44:52;;;;;;;11.65;10.45;;;12.90;70.20;;;;;;6106579;23;20296;-78
2021/04/29 10:47:24;;;;;;;13.18;11.70;;;13.10;72.00;;;;;;6105422;23;20264;-76
2021/04/29 10:49:53;;;;;;;11.48;9.32;;;13.10;70.60;;;;;;6105919;23;20648;-77
2021/04/29 10:52:19;;;;;;;11.30;8.18;;;13.40;70.70;;;;;;6104616;23;20702;-76
2021/04/29 10:54:50;;;;;;;10.73;7.88;;;13.60;64.10;;;;;;6103450;23;20205;-77
2021/04/29 10:57:17;;;;;;;8.55;7.55;;;13.60;62.50;;;;;;6110329;23;20500;-78
2021/04/29 10:59:45;;;;;;;10.38;8.40;;;13.80;61.60;;;;;;6119285;23;20284;-74
2021/04/29 11:02:25;;;;;;;9.00;7.07;;;14.10;62.40;;;;;;6119838;23;20185;-74
2021/04/29 11:04:53;;;;;;;8.63;7.55;;;14.20;60.30;;;;;;6086928;23;20201;-76
2021/04/29 11:07:21;;;;;;;10.80;8.30;;;14.30;61.10;;;;;;6130764;23;20525;-76
2021/04/29 11:10:01;;;;;;;11.23;8.07;;;14.40;62.60;;;;;;6112278;23;20185;-79
2021/04/29 11:12:42;;;;;;;8.65;7.57;;;14.70;60.60;;;;;;6106698;23;20176;-75
2021/04/29 11:15:23;;;;;;;8.73;7.87;;;14.80;59.30;;;;;;6104492;23;20244;-78
2021/04/29 11:18:03;;;;;;;9.13;8.20;;;15.10;59.90;;;;;;6104131;23;20413;-77
2021/04/29 11:20:42;;;;;;;12.67;8.30;;;15.50;57.30;;;;;;6104938;23;20197;-76
2021/04/29 11:23:09;;;;;;;10.17;9.13;;;15.50;54.70;;;;;;6103704;23;20397;-76
2021/04/29 11:25:36;;;;;;;10.80;9.40;;;15.50;54.40;;;;;;6105959;23;20437;-77
2021/04/29 11:28:03;;;;;;;10.03;8.57;;;15.60;56.70;;;;;;6106690;23;20501;-76
2021/04/29 11:30:30;;;;;;;14.70;9.70;;;15.60;54.50;;;;;;6108961;23;20407;-75
2021/04/29 11:32:58;;;;;;;10.07;9.10;;;15.40;54.30;;;;;;6121708;23;20405;-74
2021/04/29 11:35:26;;;;;;;12.30;10.35;;;15.20;55.90;;;;;;6122264;23;20432;-75
2021/04/29 11:37:55;;;;;;;11.57;10.10;;;15.50;55.40;;;;;;6120501;23;20189;-75
2021/04/29 11:40:22;;;;;;;11.87;10.77;;;15.80;56.40;;;;;;6120856;23;20170;-75
2021/04/29 11:42:52;;;;;;;12.33;11.03;;;16.00;54.20;;;;;;6110845;23;20383;-76
2021/04/29 11:45:21;;;;;;;12.73;11.53;;;16.40;51.40;;;;;;6108260;23;20415;-77
2021/04/29 11:47:56;;;;;;;13.30;10.53;;;16.50;50.50;;;;;;6106869;23;20514;-77
2021/04/29 11:50:24;;;;;;;11.90;10.80;;;16.50;48.80;;;;;;6107583;23;20773;-77
2021/04/29 11:53:01;;;;;;;13.40;11.23;;;16.40;48.20;;;;;;6108743;23;20443;-76
2021/04/29 11:55:29;;;;;;;11.17;9.93;;;16.30;48.70;;;;;;6105049;23;20418;-77
2021/04/29 11:58:01;;;;;;;14.90;10.80;;;16.50;47.70;;;;;;6106745;23;20439;-76
2021/04/29 12:00:33;;;;;;;10.00;9.10;;;16.60;46.90;;;;;;6104282;23;20379;-75
2021/04/29 12:03:01;;;;;;;9.33;8.33;;;16.70;46.60;;;;;;6100322;23;20768;-75
2021/04/29 12:05:32;;;;;;;9.83;8.10;;;16.70;45.00;;;;;;6102866;23;20508;-76
2021/04/29 12:07:59;;;;;;;9.00;7.63;;;16.40;45.50;;;;;;6104811;23;20428;-77
2021/04/29 12:10:25;;;;;;;10.30;8.57;;;16.20;46.00;;;;;;6106120;23;20396;-76
2021/04/29 12:12:52;;;;;;;7.50;6.80;;;15.90;46.10;;;;;;6101107;23;20387;-77
2021/04/29 12:15:19;;;;;;;15.73;6.13;;;16.00;46.20;;;;;;6099330;23;20407;-77
2021/04/29 12:17:45;;;;;;;7.27;6.27;;;16.30;45.20;;;;;;6102609;23;20384;-77
2021/04/29 12:20:13;;;;;;;7.20;5.70;;;16.40;42.30;;;;;;6102433;23;20481;-78
2021/04/29 12:22:41;;;;;;;8.53;5.50;;;16.50;42.60;;;;;;6101530;23;20418;-77
2021/04/29 12:25:19;;;;;;;7.73;5.50;;;16.60;42.70;;;;;;6102237;23;20505;-76
2021/04/29 12:27:45;;;;;;;7.13;5.07;;;16.50;39.60;;;;;;6113566;23;20948;-76
2021/04/29 12:30:14;;;;;;;6.57;5.47;;;16.50;40.60;;;;;;6115156;23;20393;-76
2021/04/29 12:32:45;;;;;;;5.53;5.13;;;16.70;41.40;;;;;;6117066;23;20414;-76
2021/04/29 12:35:13;;;;;;;8.60;4.97;;;16.80;40.50;;;;;;6117750;23;20469;-76
2021/04/29 12:37:50;;;;;;;5.83;5.23;;;16.80;39.90;;;;;;6122167;23;20377;-74
2021/04/29 12:40:24;;;;;;;7.83;6.03;;;16.80;39.40;;;;;;6121873;23;20412;-75
2021/04/29 12:42:51;;;;;;;10.40;5.90;;;16.90;39.30;;;;;;6123002;23;20380;-75
2021/04/29 12:45:18;;;;;;;6.70;6.00;;;17.00;40.20;;;;;;6122751;23;20460;-76
2021/04/29 12:47:54;;;;;;;6.20;5.60;;;17.20;39.40;;;;;;6122726;23;20458;-77
2021/04/29 12:50:22;;;;;;;6.50;5.90;;;17.00;38.00;;;;;;6122813;23;20527;-76
2021/04/29 12:52:49;;;;;;;6.30;5.70;;;17.40;36.40;;;;;;6113896;23;20380;-76